createdAt,value
2018-11-04T00:00:48.253Z,1011.64
2018-11-04T00:01:48.275Z,1011.66
2018-11-04T00:02:48.190Z,1011.63
2018-11-04T00:03:48.176Z,1011.62
2018-11-04T00:04:48.165Z,1011.65
2018-11-04T00:05:48.480Z,1011.66
2018-11-04T00:06:49.367Z,1011.62
2018-11-04T00:07:48.136Z,1011.60
2018-11-04T00:08:48.125Z,1011.54
2018-11-04T00:09:48.112Z,1011.49
2018-11-04T00:10:48.102Z,1011.52
2018-11-04T00:11:48.661Z,1011.43
2018-11-04T00:12:48.806Z,1011.42
2018-11-04T00:13:48.699Z,1011.43
2018-11-04T00:14:48.795Z,1011.43
2018-11-04T00:15:48.124Z,1011.42
2018-11-04T00:16:49.623Z,1011.43
2018-11-04T00:17:48.138Z,1011.36
2018-11-04T00:18:48.475Z,1011.38
2018-11-04T00:19:48.660Z,1011.31
2018-11-04T00:20:48.836Z,1011.35
2018-11-04T00:21:48.073Z,1011.30
2018-11-04T00:22:48.066Z,1011.35
2018-11-04T00:23:48.003Z,1011.33
2018-11-04T00:24:48.458Z,1011.30
2018-11-04T00:25:49.117Z,1011.31
2018-11-04T00:26:48.339Z,1011.34
2018-11-04T00:27:47.922Z,1011.32
2018-11-04T00:28:48.658Z,1011.33
2018-11-04T00:29:47.935Z,1011.31
2018-11-04T00:30:48.031Z,1011.32
2018-11-04T00:31:47.878Z,1011.32
2018-11-04T00:32:47.868Z,1011.34
2018-11-04T00:33:48.354Z,1011.26
2018-11-04T00:34:47.846Z,1011.29
2018-11-04T00:35:47.836Z,1011.25
2018-11-04T00:36:47.961Z,1011.27
2018-11-04T00:37:47.815Z,1011.24
2018-11-04T00:38:47.802Z,1011.24
2018-11-04T00:39:47.792Z,1011.27
2018-11-04T00:40:48.157Z,1011.24
2018-11-04T00:41:47.778Z,1011.28
2018-11-04T00:42:48.656Z,1011.28
2018-11-04T00:43:47.751Z,1011.28
2018-11-04T00:44:47.795Z,1011.20
2018-11-04T00:45:47.728Z,1011.23
2018-11-04T00:46:47.718Z,1011.18
2018-11-04T00:47:48.168Z,1011.22
2018-11-04T00:48:47.846Z,1011.14
2018-11-04T00:49:47.690Z,1011.17
2018-11-04T00:50:47.675Z,1011.19
2018-11-04T00:51:47.664Z,1011.15
2018-11-04T00:52:47.706Z,1011.12
2018-11-04T00:53:47.643Z,1011.19
2018-11-04T00:54:47.774Z,1011.15
2018-11-04T00:55:47.622Z,1011.10
2018-11-04T00:56:47.611Z,1011.13
2018-11-04T00:57:47.602Z,1011.11
2018-11-04T00:58:47.595Z,1011.12
2018-11-04T00:59:47.687Z,1011.08
2018-11-04T01:00:48.090Z,1011.06
2018-11-04T01:01:47.560Z,1011.11
2018-11-04T01:02:47.553Z,1011.11
2018-11-04T01:03:47.538Z,1011.09
2018-11-04T01:04:47.537Z,1011.05
2018-11-04T01:05:47.517Z,1011.02
2018-11-04T01:06:48.834Z,1011.00
2018-11-04T01:07:47.497Z,1011.00
2018-11-04T01:08:47.526Z,1010.98
2018-11-04T01:09:47.475Z,1010.97
2018-11-04T01:10:47.467Z,1010.99
2018-11-04T01:11:47.511Z,1010.96
2018-11-04T01:12:47.519Z,1010.98
2018-11-04T01:13:47.434Z,1010.98
2018-11-04T01:14:47.423Z,1010.95
2018-11-04T01:15:47.414Z,1010.94
2018-11-04T01:16:47.406Z,1010.99
2018-11-04T01:17:47.390Z,1010.95
2018-11-04T01:18:47.465Z,1010.87
2018-11-04T01:19:48.797Z,1010.86
2018-11-04T01:20:47.359Z,1010.80
2018-11-04T01:21:47.354Z,1010.80
2018-11-04T01:22:47.337Z,1010.76
2018-11-04T01:23:48.150Z,1010.74
2018-11-04T01:24:47.390Z,1010.73
2018-11-04T01:25:47.305Z,1010.76
2018-11-04T01:26:47.298Z,1010.73
2018-11-04T01:27:47.283Z,1010.64
2018-11-04T01:28:47.274Z,1010.69
2018-11-04T01:29:47.265Z,1010.64
2018-11-04T01:30:47.323Z,1010.58
2018-11-04T01:31:48.578Z,1010.61
2018-11-04T01:32:47.230Z,1010.65
2018-11-04T01:33:47.220Z,1010.55
2018-11-04T01:34:47.209Z,1010.57
2018-11-04T01:35:47.199Z,1010.55
2018-11-04T01:36:47.296Z,1010.57
2018-11-04T01:37:47.178Z,1010.56
2018-11-04T01:38:47.462Z,1010.53
2018-11-04T01:39:47.160Z,1010.51
2018-11-04T01:40:47.146Z,1010.53
2018-11-04T01:41:47.141Z,1010.47
2018-11-04T01:42:47.198Z,1010.45
2018-11-04T01:43:47.644Z,1010.45
2018-11-04T01:44:47.211Z,1010.41
2018-11-04T01:45:47.098Z,1010.37
2018-11-04T01:46:47.081Z,1010.34
2018-11-04T01:47:47.071Z,1010.30
2018-11-04T01:48:47.137Z,1010.26
2018-11-04T01:49:47.053Z,1010.29
2018-11-04T01:50:47.345Z,1010.27
2018-11-04T01:51:47.030Z,1010.25
2018-11-04T01:52:47.018Z,1010.24
2018-11-04T01:53:47.641Z,1010.23
2018-11-04T01:54:47.096Z,1010.23
2018-11-04T01:55:48.126Z,1010.22
2018-11-04T01:56:46.975Z,1010.26
2018-11-04T01:57:47.250Z,1010.21
2018-11-04T01:58:46.956Z,1010.18
2018-11-04T01:59:47.641Z,1010.17
2018-11-04T02:00:47.009Z,1010.15
2018-11-04T02:01:46.925Z,1010.09
2018-11-04T02:02:47.642Z,1010.09
2018-11-04T02:03:47.650Z,1010.07
2018-11-04T02:04:47.173Z,1010.06
2018-11-04T02:05:46.880Z,1010.07
2018-11-04T02:06:47.684Z,1010.06
2018-11-04T02:07:47.601Z,1010.04
2018-11-04T02:08:46.851Z,1010.04
2018-11-04T02:09:46.840Z,1010.02
2018-11-04T02:10:46.828Z,1010.02
2018-11-04T02:11:47.122Z,1010.02
2018-11-04T02:12:47.639Z,1010.00
2018-11-04T02:13:46.795Z,1009.97
2018-11-04T02:14:46.786Z,1009.96
2018-11-04T02:15:46.773Z,1009.93
2018-11-04T02:16:46.765Z,1009.89
2018-11-04T02:17:46.755Z,1009.94
2018-11-04T02:18:47.268Z,1009.91
2018-11-04T02:19:46.733Z,1009.91
2018-11-04T02:20:46.722Z,1009.86
2018-11-04T02:21:46.712Z,1009.88
2018-11-04T02:22:46.700Z,1009.85
2018-11-04T02:23:46.690Z,1009.79
2018-11-04T02:24:46.755Z,1009.80
2018-11-04T02:25:46.958Z,1009.82
2018-11-04T02:26:46.656Z,1009.79
2018-11-04T02:27:46.645Z,1009.77
2018-11-04T02:28:46.635Z,1009.68
2018-11-04T02:29:46.628Z,1009.72
2018-11-04T02:30:46.717Z,1009.69
2018-11-04T02:31:46.607Z,1009.68
2018-11-04T02:32:47.596Z,1009.66
2018-11-04T02:33:46.580Z,1009.65
2018-11-04T02:34:46.571Z,1009.59
2018-11-04T02:35:46.560Z,1009.67
2018-11-04T02:36:46.624Z,1009.61
2018-11-04T02:37:46.543Z,1009.60
2018-11-04T02:38:46.526Z,1009.62
2018-11-04T02:39:46.892Z,1009.53
2018-11-04T02:40:46.505Z,1009.57
2018-11-04T02:41:46.494Z,1009.58
2018-11-04T02:42:46.568Z,1009.54
2018-11-04T02:43:46.473Z,1009.61
2018-11-04T02:44:46.463Z,1009.58
2018-11-04T02:45:46.450Z,1009.61
2018-11-04T02:46:47.264Z,1009.58
2018-11-04T02:47:46.429Z,1009.56
2018-11-04T02:48:46.525Z,1009.59
2018-11-04T02:49:46.410Z,1009.55
2018-11-04T02:50:46.397Z,1009.50
2018-11-04T02:51:46.386Z,1009.47
2018-11-04T02:52:46.375Z,1009.51
2018-11-04T02:53:47.593Z,1009.46
2018-11-04T02:54:46.427Z,1009.47
2018-11-04T02:55:46.344Z,1009.50
2018-11-04T02:56:49.132Z,1009.42
2018-11-04T02:57:46.328Z,1009.41
2018-11-04T02:58:46.317Z,1009.44
2018-11-04T02:59:46.301Z,1009.42
2018-11-04T03:02:23.788Z,1009.36
2018-11-04T03:03:23.615Z,1009.39
2018-11-04T03:04:23.605Z,1009.41
2018-11-04T03:05:23.591Z,1009.39
2018-11-04T03:06:23.582Z,1009.37
2018-11-04T03:07:23.568Z,1009.39
2018-11-04T03:08:24.069Z,1009.37
2018-11-04T03:09:23.546Z,1009.36
2018-11-04T03:10:23.540Z,1009.27
2018-11-04T03:11:23.527Z,1009.30
2018-11-04T03:12:23.521Z,1009.30
2018-11-04T03:13:23.504Z,1009.28
2018-11-04T03:14:23.621Z,1009.27
2018-11-04T03:15:23.787Z,1009.24
2018-11-04T03:16:23.475Z,1009.24
2018-11-04T03:17:23.460Z,1009.25
2018-11-04T03:18:23.455Z,1009.18
2018-11-04T03:19:23.442Z,1009.18
2018-11-04T03:20:23.532Z,1009.20
2018-11-04T03:21:23.566Z,1009.20
2018-11-04T03:22:24.857Z,1009.21
2018-11-04T03:23:23.403Z,1009.19
2018-11-04T03:24:23.390Z,1009.15
2018-11-04T03:25:23.385Z,1009.08
2018-11-04T03:26:23.448Z,1009.10
2018-11-04T03:27:23.356Z,1009.08
2018-11-04T03:28:23.348Z,1009.09
2018-11-04T03:29:23.622Z,1009.10
2018-11-04T03:30:23.326Z,1009.08
2018-11-04T03:31:23.320Z,1009.04
2018-11-04T03:32:23.379Z,1009.09
2018-11-04T03:33:23.295Z,1009.05
2018-11-04T03:34:23.284Z,1009.04
2018-11-04T03:35:23.274Z,1009.07
2018-11-04T03:36:23.576Z,1009.04
2018-11-04T03:37:23.251Z,1009.05
2018-11-04T03:38:23.337Z,1009.02
2018-11-04T03:39:23.231Z,1009.00
2018-11-04T03:40:23.218Z,1009.03
2018-11-04T03:41:23.208Z,1009.01
2018-11-04T03:42:23.197Z,1008.96
2018-11-04T03:43:23.471Z,1008.96
2018-11-04T03:44:23.249Z,1008.93
2018-11-04T03:45:23.166Z,1008.92
2018-11-04T03:46:23.158Z,1008.88
2018-11-04T03:47:23.147Z,1008.86
2018-11-04T03:48:23.134Z,1008.90
2018-11-04T03:49:23.125Z,1008.89
2018-11-04T03:50:23.532Z,1008.89
2018-11-04T03:51:23.105Z,1008.94
2018-11-04T03:52:23.695Z,1008.88
2018-11-04T03:53:23.082Z,1008.85
2018-11-04T03:54:23.070Z,1008.83
2018-11-04T03:55:23.059Z,1008.83
2018-11-04T03:56:23.150Z,1008.84
2018-11-04T03:57:23.351Z,1008.81
2018-11-04T03:58:23.027Z,1008.82
2018-11-04T03:59:23.034Z,1008.86
2018-11-04T04:00:23.007Z,1008.78
2018-11-04T04:01:22.996Z,1008.85
2018-11-04T04:02:23.057Z,1008.83
2018-11-04T04:03:22.975Z,1008.84
2018-11-04T04:04:23.244Z,1008.80
2018-11-04T04:05:22.955Z,1008.79
2018-11-04T04:06:22.944Z,1008.76
2018-11-04T04:07:22.935Z,1008.78
2018-11-04T04:08:23.008Z,1008.83
2018-11-04T04:09:22.915Z,1008.79
2018-11-04T04:10:23.689Z,1008.83
2018-11-04T04:11:23.202Z,1008.80
2018-11-04T04:12:22.984Z,1008.83
2018-11-04T04:13:22.876Z,1008.79
2018-11-04T04:14:22.967Z,1008.81
2018-11-04T04:15:22.850Z,1008.80
2018-11-04T04:16:22.841Z,1008.79
2018-11-04T04:17:22.836Z,1008.81
2018-11-04T04:18:23.209Z,1008.79
2018-11-04T04:19:22.813Z,1008.74
2018-11-04T04:20:22.873Z,1008.70
2018-11-04T04:21:22.792Z,1008.71
2018-11-04T04:22:22.779Z,1008.72
2018-11-04T04:23:22.770Z,1008.74
2018-11-04T04:24:22.765Z,1008.73
2018-11-04T04:25:23.041Z,1008.70
2018-11-04T04:26:22.957Z,1008.66
2018-11-04T04:27:22.726Z,1008.69
2018-11-04T04:28:22.715Z,1008.69
2018-11-04T04:29:22.709Z,1008.70
2018-11-04T04:30:22.700Z,1008.67
2018-11-04T04:31:22.687Z,1008.64
2018-11-04T04:32:23.013Z,1008.65
2018-11-04T04:33:22.670Z,1008.63
2018-11-04T04:34:22.656Z,1008.64
2018-11-04T04:35:22.647Z,1008.66
2018-11-04T04:36:22.632Z,1008.63
2018-11-04T04:37:22.625Z,1008.69
2018-11-04T04:38:22.980Z,1008.67
2018-11-04T04:39:22.603Z,1008.63
2018-11-04T04:40:22.593Z,1008.69
2018-11-04T04:41:22.584Z,1008.70
2018-11-04T04:42:22.572Z,1008.67
2018-11-04T04:43:22.562Z,1008.69
2018-11-04T04:44:22.622Z,1008.64
2018-11-04T04:45:22.829Z,1008.66
2018-11-04T04:46:22.537Z,1008.62
2018-11-04T04:47:22.518Z,1008.63
2018-11-04T04:48:22.603Z,1008.62
2018-11-04T04:49:22.798Z,1008.61
2018-11-04T04:50:22.588Z,1008.61
2018-11-04T04:51:22.481Z,1008.56
2018-11-04T04:52:22.771Z,1008.56
2018-11-04T04:53:22.558Z,1008.55
2018-11-04T04:54:22.448Z,1008.57
2018-11-04T04:55:22.441Z,1008.57
2018-11-04T04:56:22.499Z,1008.54
2018-11-04T04:57:22.420Z,1008.54
2018-11-04T04:58:22.407Z,1008.52
2018-11-04T04:59:22.683Z,1008.52
2018-11-04T05:00:22.430Z,1008.46
2018-11-04T05:01:22.373Z,1008.51
2018-11-04T05:02:22.435Z,1008.41
2018-11-04T05:03:22.357Z,1008.43
2018-11-04T05:04:22.345Z,1008.45
2018-11-04T05:05:22.342Z,1008.45
2018-11-04T05:06:22.610Z,1008.47
2018-11-04T05:07:22.417Z,1008.44
2018-11-04T05:08:22.439Z,1008.42
2018-11-04T05:09:22.295Z,1008.43
2018-11-04T05:10:22.281Z,1008.44
2018-11-04T05:11:22.271Z,1008.40
2018-11-04T05:12:22.260Z,1008.37
2018-11-04T05:13:22.537Z,1008.37
2018-11-04T05:14:22.361Z,1008.32
2018-11-04T05:15:22.235Z,1008.38
2018-11-04T05:16:22.225Z,1008.37
2018-11-04T05:17:22.250Z,1008.41
2018-11-04T05:18:22.199Z,1008.36
2018-11-04T05:19:22.191Z,1008.37
2018-11-04T05:20:22.554Z,1008.36
2018-11-04T05:21:22.172Z,1008.35
2018-11-04T05:22:22.675Z,1008.32
2018-11-04T05:23:22.150Z,1008.36
2018-11-04T05:24:22.141Z,1008.35
2018-11-04T05:25:22.677Z,1008.36
2018-11-04T05:26:22.359Z,1008.36
2018-11-04T05:27:22.207Z,1008.40
2018-11-04T05:28:22.099Z,1008.40
2018-11-04T05:29:22.672Z,1008.35
2018-11-04T05:30:22.674Z,1008.39
2018-11-04T05:31:22.064Z,1008.38
2018-11-04T05:32:22.132Z,1008.36
2018-11-04T05:33:22.043Z,1008.35
2018-11-04T05:34:22.035Z,1008.39
2018-11-04T05:35:22.022Z,1008.40
2018-11-04T05:36:22.013Z,1008.37
2018-11-04T05:37:22.008Z,1008.33
2018-11-04T05:38:22.441Z,1008.32
2018-11-04T05:39:22.672Z,1008.32
2018-11-04T05:40:21.975Z,1008.37
2018-11-04T05:41:21.964Z,1008.35
2018-11-04T05:42:22.671Z,1008.37
2018-11-04T05:43:21.943Z,1008.32
2018-11-04T05:44:22.040Z,1008.31
2018-11-04T05:45:21.917Z,1008.32
2018-11-04T05:46:21.913Z,1008.31
2018-11-04T05:47:21.899Z,1008.27
2018-11-04T05:48:21.889Z,1008.27
2018-11-04T05:49:21.879Z,1008.26
2018-11-04T05:50:22.232Z,1008.26
2018-11-04T05:51:21.859Z,1008.25
2018-11-04T05:52:21.848Z,1008.17
2018-11-04T05:53:21.838Z,1008.28
2018-11-04T05:54:21.829Z,1008.16
2018-11-04T05:55:21.825Z,1008.14
2018-11-04T05:56:21.888Z,1008.19
2018-11-04T05:57:22.091Z,1008.18
2018-11-04T05:58:21.789Z,1008.15
2018-11-04T05:59:21.776Z,1008.15
2018-11-04T06:00:21.767Z,1008.15
2018-11-04T06:01:21.757Z,1008.18
2018-11-04T06:02:21.844Z,1008.12
2018-11-04T06:03:21.731Z,1008.13
2018-11-04T06:04:22.045Z,1008.14
2018-11-04T06:05:21.714Z,1008.14
2018-11-04T06:06:21.705Z,1008.14
2018-11-04T06:07:21.699Z,1008.17
2018-11-04T06:08:21.757Z,1008.19
2018-11-04T06:09:21.672Z,1008.16
2018-11-04T06:10:21.666Z,1008.17
2018-11-04T06:11:21.931Z,1008.21
2018-11-04T06:12:21.637Z,1008.22
2018-11-04T06:13:21.627Z,1008.26
2018-11-04T06:14:21.734Z,1008.22
2018-11-04T06:15:21.610Z,1008.21
2018-11-04T06:16:21.602Z,1008.25
2018-11-04T06:17:21.591Z,1008.24
2018-11-04T06:18:21.854Z,1008.22
2018-11-04T06:19:21.570Z,1008.34
2018-11-04T06:20:23.295Z,1008.26
2018-11-04T06:21:21.547Z,1008.31
2018-11-04T06:22:21.536Z,1008.31
2018-11-04T06:23:21.523Z,1008.30
2018-11-04T06:24:21.512Z,1008.29
2018-11-04T06:25:21.805Z,1008.31
2018-11-04T06:26:21.709Z,1008.31
2018-11-04T06:27:21.485Z,1008.35
2018-11-04T06:28:21.474Z,1008.33
2018-11-04T06:29:21.469Z,1008.33
2018-11-04T06:30:21.452Z,1008.33
2018-11-04T06:31:21.441Z,1008.29
2018-11-04T06:32:21.505Z,1008.37
2018-11-04T06:33:21.420Z,1008.33
2018-11-04T06:34:21.456Z,1008.30
2018-11-04T06:35:21.774Z,1008.31
2018-11-04T06:36:21.389Z,1008.29
2018-11-04T06:37:21.379Z,1008.29
2018-11-04T06:38:21.894Z,1008.26
2018-11-04T06:39:21.361Z,1008.32
2018-11-04T06:40:21.410Z,1008.30
2018-11-04T06:41:21.340Z,1008.31
2018-11-04T06:42:21.389Z,1008.32
2018-11-04T06:43:21.389Z,1008.29
2018-11-04T06:44:21.385Z,1008.31
2018-11-04T06:45:21.584Z,1008.31
2018-11-04T06:46:21.285Z,1008.38
2018-11-04T06:47:21.305Z,1008.36
2018-11-04T06:48:21.264Z,1008.37
2018-11-04T06:49:21.256Z,1008.34
2018-11-04T06:50:21.320Z,1008.36
2018-11-04T06:51:21.233Z,1008.36
2018-11-04T06:52:22.629Z,1008.34
2018-11-04T06:53:21.216Z,1008.36
2018-11-04T06:54:21.200Z,1008.33
2018-11-04T06:55:22.260Z,1008.34
2018-11-04T06:56:21.279Z,1008.32
2018-11-04T06:57:21.170Z,1008.32
2018-11-04T06:58:21.158Z,1008.33
2018-11-04T06:59:21.478Z,1008.30
2018-11-04T07:00:21.135Z,1008.32
2018-11-04T07:01:21.130Z,1008.34
2018-11-04T07:02:22.060Z,1008.27
2018-11-04T07:03:21.147Z,1008.27
2018-11-04T07:04:21.190Z,1008.28
2018-11-04T07:05:21.744Z,1008.33
2018-11-04T07:06:21.563Z,1008.31
2018-11-04T07:07:21.068Z,1008.28
2018-11-04T07:08:21.130Z,1008.29
2018-11-04T07:09:21.043Z,1008.24
2018-11-04T07:10:21.658Z,1008.21
2018-11-04T07:11:21.026Z,1008.19
2018-11-04T07:12:21.656Z,1008.20
2018-11-04T07:13:21.968Z,1008.25
2018-11-04T07:14:21.237Z,1008.25
2018-11-04T07:15:20.979Z,1008.22
2018-11-04T07:16:20.967Z,1008.26
2018-11-04T07:17:20.961Z,1008.19
2018-11-04T07:18:20.947Z,1008.19
2018-11-04T07:19:20.934Z,1008.19
2018-11-04T07:20:21.258Z,1008.17
2018-11-04T07:21:21.652Z,1008.19
2018-11-04T07:22:20.903Z,1008.19
2018-11-04T07:23:20.897Z,1008.19
2018-11-04T07:24:20.884Z,1008.20
2018-11-04T07:25:20.872Z,1008.21
2018-11-04T07:26:20.951Z,1008.25
2018-11-04T07:27:21.161Z,1008.24
2018-11-04T07:28:21.611Z,1008.27
2018-11-04T07:29:20.830Z,1008.27
2018-11-04T07:30:20.822Z,1008.23
2018-11-04T07:31:20.808Z,1008.21
2018-11-04T07:32:22.381Z,1008.24
2018-11-04T07:33:21.792Z,1008.23
2018-11-04T07:34:21.532Z,1008.25
2018-11-04T07:35:20.773Z,1008.23
2018-11-04T07:36:20.759Z,1008.27
2018-11-04T07:37:20.753Z,1008.23
2018-11-04T07:38:20.779Z,1008.26
2018-11-04T07:39:20.724Z,1008.25
2018-11-04T07:40:20.718Z,1008.25
2018-11-04T07:41:21.000Z,1008.25
2018-11-04T07:42:20.697Z,1008.20
2018-11-04T07:43:20.691Z,1008.19
2018-11-04T07:44:20.802Z,1008.23
2018-11-04T07:45:20.672Z,1008.19
2018-11-04T07:46:20.655Z,1008.20
2018-11-04T07:47:20.644Z,1008.25
2018-11-04T07:48:20.919Z,1008.17
2018-11-04T07:49:20.621Z,1008.21
2018-11-04T07:50:20.678Z,1008.18
2018-11-04T07:51:20.640Z,1008.19
2018-11-04T07:52:20.592Z,1008.17
2018-11-04T07:53:20.583Z,1008.15
2018-11-04T07:54:20.568Z,1008.14
2018-11-04T07:55:20.562Z,1008.10
2018-11-04T07:56:20.595Z,1008.13
2018-11-04T07:57:20.541Z,1008.11
2018-11-04T07:58:20.534Z,1008.11
2018-11-04T07:59:20.521Z,1008.10
2018-11-04T08:00:20.511Z,1008.09
2018-11-04T08:01:20.883Z,1008.07
2018-11-04T08:02:20.534Z,1008.06
2018-11-04T08:03:20.509Z,1008.03
2018-11-04T08:04:20.571Z,1008.04
2018-11-04T08:05:20.456Z,1008.04
2018-11-04T08:06:20.452Z,1008.00
2018-11-04T08:07:20.435Z,1008.02
2018-11-04T08:08:21.196Z,1008.03
2018-11-04T08:09:20.414Z,1008.11
2018-11-04T08:10:20.408Z,1008.08
2018-11-04T08:11:20.392Z,1008.05
2018-11-04T08:12:20.387Z,1008.06
2018-11-04T08:13:20.754Z,1008.02
2018-11-04T08:14:20.435Z,1008.02
2018-11-04T08:15:20.351Z,1008.05
2018-11-04T08:16:20.577Z,1008.03
2018-11-04T08:17:20.394Z,1008.01
2018-11-04T08:18:21.209Z,1008.02
2018-11-04T08:19:21.162Z,1008.01
2018-11-04T08:20:20.626Z,1008.03
2018-11-04T08:21:20.400Z,1008.00
2018-11-04T08:22:20.284Z,1007.98
2018-11-04T08:23:20.264Z,1007.98
2018-11-04T08:24:20.267Z,1007.91
2018-11-04T08:25:22.536Z,1007.95
2018-11-04T08:26:23.602Z,1007.92
2018-11-04T08:27:20.230Z,1007.94
2018-11-04T08:28:21.145Z,1007.88
2018-11-04T08:29:20.201Z,1007.86
2018-11-04T08:30:20.192Z,1007.88
2018-11-04T08:31:22.147Z,1007.87
2018-11-04T08:32:20.243Z,1007.83
2018-11-04T08:33:20.162Z,1007.83
2018-11-04T08:34:20.152Z,1007.86
2018-11-04T08:35:20.140Z,1007.84
2018-11-04T08:36:20.128Z,1007.82
2018-11-04T08:37:20.124Z,1007.80
2018-11-04T08:38:20.533Z,1007.83
2018-11-04T08:39:20.098Z,1007.83
2018-11-04T08:40:20.107Z,1007.82
2018-11-04T08:41:20.638Z,1007.84
2018-11-04T08:42:20.065Z,1007.88
2018-11-04T08:43:20.055Z,1007.87
2018-11-04T08:44:20.295Z,1007.80
2018-11-04T08:45:20.940Z,1007.85
2018-11-04T08:46:20.639Z,1007.84
2018-11-04T08:47:20.642Z,1007.80
2018-11-04T08:48:20.005Z,1007.80
2018-11-04T08:49:19.993Z,1007.79
2018-11-04T08:50:20.903Z,1007.76
2018-11-04T08:51:19.981Z,1007.74
2018-11-04T08:52:20.965Z,1007.72
2018-11-04T08:53:19.986Z,1007.66
2018-11-04T08:54:20.641Z,1007.68
2018-11-04T08:55:20.727Z,1007.72
2018-11-04T08:56:20.129Z,1007.68
2018-11-04T08:57:20.168Z,1007.71
2018-11-04T08:58:19.900Z,1007.66
2018-11-04T08:59:20.366Z,1007.68
2018-11-04T09:00:19.881Z,1007.67
2018-11-04T09:01:20.025Z,1007.74
2018-11-04T09:02:20.079Z,1007.66
2018-11-04T09:03:20.017Z,1007.67
2018-11-04T09:04:19.898Z,1007.64
2018-11-04T09:05:19.889Z,1007.63
2018-11-04T09:06:20.212Z,1007.63
2018-11-04T09:07:22.637Z,1007.57
2018-11-04T09:08:20.774Z,1007.54
2018-11-04T09:09:21.097Z,1007.53
2018-11-04T09:10:20.608Z,1007.57
2018-11-04T09:11:19.953Z,1007.57
2018-11-04T09:12:19.877Z,1007.54
2018-11-04T09:13:21.595Z,1007.56
2018-11-04T09:14:20.737Z,1007.55
2018-11-04T09:15:19.728Z,1007.53
2018-11-04T09:16:19.717Z,1007.46
2018-11-04T09:17:19.705Z,1007.52
2018-11-04T09:18:19.697Z,1007.42
2018-11-04T09:19:19.684Z,1007.42
2018-11-04T09:20:20.483Z,1007.44
2018-11-04T09:21:19.667Z,1007.43
2018-11-04T09:22:19.753Z,1007.46
2018-11-04T09:23:22.657Z,1007.42
2018-11-04T09:24:19.632Z,1007.38
2018-11-04T09:25:19.623Z,1007.41
2018-11-04T09:26:19.728Z,1007.42
2018-11-04T09:27:20.064Z,1007.41
2018-11-04T09:28:19.591Z,1007.37
2018-11-04T09:29:19.669Z,1007.35
2018-11-04T09:32:31.385Z,1007.31
2018-11-04T09:33:31.724Z,1007.30
2018-11-04T09:34:30.969Z,1007.34
2018-11-04T09:35:31.087Z,1007.31
2018-11-04T09:36:31.020Z,1007.34
2018-11-04T09:37:30.924Z,1007.29
2018-11-04T09:38:32.104Z,1007.25
2018-11-04T09:39:31.716Z,1007.25
2018-11-04T09:40:30.888Z,1007.26
2018-11-04T09:41:30.878Z,1007.26
2018-11-04T09:42:30.868Z,1007.25
2018-11-04T09:43:30.853Z,1007.26
2018-11-04T09:44:31.060Z,1007.24
2018-11-04T09:45:30.835Z,1007.22
2018-11-04T09:46:30.832Z,1007.21
2018-11-04T09:47:30.812Z,1007.16
2018-11-04T09:48:30.803Z,1007.13
2018-11-04T09:49:30.792Z,1007.07
2018-11-04T09:50:31.261Z,1007.05
2018-11-04T09:51:30.769Z,1007.07
2018-11-04T09:52:30.759Z,1007.08
2018-11-04T09:53:30.748Z,1007.07
2018-11-04T09:54:30.808Z,1007.06
2018-11-04T09:55:30.724Z,1007.03
2018-11-04T09:56:30.888Z,1007.03
2018-11-04T09:57:31.033Z,1007.02
2018-11-04T09:58:30.694Z,1007.06
2018-11-04T09:59:30.696Z,1007.09
2018-11-04T10:00:30.674Z,1007.08
2018-11-04T10:02:46.007Z,1007.08
2018-11-04T10:03:45.911Z,1007.01
2018-11-04T10:04:46.179Z,1007.04
2018-11-04T10:05:46.492Z,1007.06
2018-11-04T10:06:48.532Z,1007.02
2018-11-04T10:07:45.883Z,1007.03
2018-11-04T10:08:45.938Z,1007.05
2018-11-04T10:09:46.499Z,1007.06
2018-11-04T10:10:46.993Z,1007.05
2018-11-04T10:11:45.945Z,1007.05
2018-11-04T10:12:45.969Z,1007.10
2018-11-04T10:13:45.889Z,1007.09
2018-11-04T10:14:45.993Z,1007.10
2018-11-04T10:15:46.490Z,1007.09
2018-11-04T10:16:45.777Z,1007.08
2018-11-04T10:17:45.767Z,1007.07
2018-11-04T10:18:45.824Z,1007.09
2018-11-04T10:19:45.870Z,1007.02
2018-11-04T10:20:46.428Z,1006.98
2018-11-04T10:21:45.720Z,1006.97
2018-11-04T10:22:46.071Z,1006.91
2018-11-04T10:23:45.698Z,1006.93
2018-11-04T10:24:45.688Z,1006.90
2018-11-04T10:25:46.528Z,1006.93
2018-11-04T10:26:45.785Z,1006.95
2018-11-04T10:27:45.659Z,1006.91
2018-11-04T10:28:45.646Z,1006.98
2018-11-04T10:29:46.990Z,1006.95
2018-11-04T10:30:45.631Z,1006.95
2018-11-04T10:31:45.614Z,1006.96
2018-11-04T10:32:45.804Z,1006.93
2018-11-04T10:33:45.594Z,1006.95
2018-11-04T10:34:45.594Z,1006.86
2018-11-04T10:35:45.577Z,1006.92
2018-11-04T10:36:46.489Z,1006.87
2018-11-04T10:37:45.558Z,1006.88
2018-11-04T10:38:45.620Z,1006.85
2018-11-04T10:39:45.530Z,1006.89
2018-11-04T10:40:45.519Z,1006.87
2018-11-04T10:41:45.595Z,1006.87
2018-11-04T10:42:45.498Z,1006.83
2018-11-04T10:43:45.909Z,1006.83
2018-11-04T10:44:45.571Z,1006.84
2018-11-04T10:45:45.466Z,1006.83
2018-11-04T10:46:45.454Z,1006.87
2018-11-04T10:47:45.478Z,1006.83
2018-11-04T10:48:45.435Z,1006.85
2018-11-04T10:49:45.478Z,1006.86
2018-11-04T10:50:45.970Z,1006.87
2018-11-04T10:51:45.477Z,1006.87
2018-11-04T10:52:45.393Z,1006.84
2018-11-04T10:53:45.383Z,1006.83
2018-11-04T10:54:45.376Z,1006.83
2018-11-04T10:55:45.413Z,1006.81
2018-11-04T10:56:45.427Z,1006.80
2018-11-04T10:57:45.755Z,1006.81
2018-11-04T10:58:45.439Z,1006.79
2018-11-04T10:59:45.323Z,1006.77
2018-11-04T11:00:45.310Z,1006.78
2018-11-04T11:01:45.299Z,1006.79
2018-11-04T11:02:45.392Z,1006.81
2018-11-04T11:03:45.277Z,1006.82
2018-11-04T11:04:45.816Z,1006.83
2018-11-04T11:05:45.257Z,1006.82
2018-11-04T11:06:46.026Z,1006.81
2018-11-04T11:07:45.386Z,1006.80
2018-11-04T11:08:45.482Z,1006.81
2018-11-04T11:09:45.321Z,1006.79
2018-11-04T11:10:45.348Z,1006.77
2018-11-04T11:11:50.609Z,1006.74
2018-11-04T11:12:45.190Z,1006.75
2018-11-04T11:13:45.176Z,1006.70
2018-11-04T11:14:45.248Z,1006.70
2018-11-04T11:15:45.154Z,1006.66
2018-11-04T11:16:45.143Z,1006.62
2018-11-04T11:17:45.142Z,1006.61
2018-11-04T11:18:47.671Z,1006.56
2018-11-04T11:19:45.111Z,1006.56
2018-11-04T11:20:45.274Z,1006.47
2018-11-04T11:21:45.268Z,1006.50
2018-11-04T11:22:45.276Z,1006.43
2018-11-04T11:23:46.145Z,1006.46
2018-11-04T11:24:46.144Z,1006.44
2018-11-04T11:25:45.434Z,1006.41
2018-11-04T11:26:45.111Z,1006.41
2018-11-04T11:27:52.029Z,1006.38
2018-11-04T11:28:45.523Z,1006.42
2018-11-04T11:29:45.009Z,1006.36
2018-11-04T11:30:45.522Z,1006.35
2018-11-04T11:31:45.605Z,1006.25
2018-11-04T11:32:45.070Z,1006.25
2018-11-04T11:33:44.969Z,1006.23
2018-11-04T11:34:45.526Z,1006.23
2018-11-04T11:35:45.520Z,1006.21
2018-11-04T11:36:44.937Z,1006.17
2018-11-04T11:37:45.189Z,1006.19
2018-11-04T11:38:45.699Z,1006.22
2018-11-04T11:39:45.588Z,1006.22
2018-11-04T11:40:45.075Z,1006.21
2018-11-04T11:41:46.555Z,1006.20
2018-11-04T11:42:44.922Z,1006.20
2018-11-04T11:43:44.871Z,1006.21
2018-11-04T11:44:44.980Z,1006.26
2018-11-04T11:45:45.263Z,1006.27
2018-11-04T11:46:44.828Z,1006.26
2018-11-04T11:47:44.818Z,1006.23
2018-11-04T11:48:44.807Z,1006.26
2018-11-04T11:49:44.800Z,1006.27
2018-11-04T11:50:44.862Z,1006.27
2018-11-04T11:51:44.776Z,1006.17
2018-11-04T11:52:46.480Z,1006.20
2018-11-04T11:53:44.755Z,1006.21
2018-11-04T11:54:45.521Z,1006.10
2018-11-04T11:55:44.737Z,1006.13
2018-11-04T11:56:44.824Z,1006.14
2018-11-04T11:57:44.714Z,1006.12
2018-11-04T11:58:44.715Z,1006.12
2018-11-04T11:59:45.097Z,1006.12
2018-11-04T12:00:44.682Z,1006.09
2018-11-04T12:01:44.671Z,1006.13
2018-11-04T12:02:44.738Z,1006.10
2018-11-04T12:03:44.650Z,1006.10
2018-11-04T12:04:44.648Z,1006.06
2018-11-04T12:05:44.773Z,1006.08
2018-11-04T12:06:44.910Z,1006.07
2018-11-04T12:07:45.516Z,1006.03
2018-11-04T12:08:44.675Z,1006.05
2018-11-04T12:09:44.590Z,1005.97
2018-11-04T12:10:44.577Z,1005.95